sensor_id;sensor_type;location;lat;lon;timestamp;pressure;altitude;pressure_sealevel;temperature;humidity
8059;BME280;4072;42.668;23.396;2023-05-06T00:00:47;95241.94;;;9.95;100.00
8059;BME280;4072;42.668;23.396;2023-05-06T00:03:15;95238.25;;;10.14;100.00
8059;BME280;4072;42.668;23.396;2023-05-06T00:05:44;95201.84;;;9.94;100.00
8059;BME280;4072;42.668;23.396;2023-05-06T00:08:13;95242.13;;;10.13;100.00
8059;BME280;4072;42.668;23.396;2023-05-06T00:10:41;95242.56;;;9.99;100.00
8059;BME280;4072;42.668;23.396;2023-05-06T00:13:10;95198.78;;;9.70;100.00
8059;BME280;4072;42.668;23.396;2023-05-06T00:15:40;95244.34;;;9.93;100.00
8059;BME280;4072;42.668;23.396;2023-05-06T00:18:08;95237.44;;;9.92;100.00
8059;BME280;4072;42.668;23.396;2023-05-06T00:20:36;95236.78;;;9.88;100.00
8059;BME280;4072;42.668;23.396;2023-05-06T00:23:04;95191.06;;;9.60;100.00
8059;BME280;4072;42.668;23.396;2023-05-06T00:25:32;95238.22;;;9.80;100.00
8059;BME280;4072;42.668;23.396;2023-05-06T00:28:01;95233.47;;;9.72;100.00
8059;BME280;4072;42.668;23.396;2023-05-06T00:30:29;95242.34;;;9.72;100.00
8059;BME280;4072;42.668;23.396;2023-05-06T00:32:59;95232.22;;;9.64;100.00
8059;BME280;4072;42.668;23.396;2023-05-06T00:35:29;95239.00;;;9.68;100.00
8059;BME280;4072;42.668;23.396;2023-05-06T00:38:06;95236.63;;;9.70;100.00
8059;BME280;4072;42.668;23.396;2023-05-06T00:40:35;95256.31;;;9.58;100.00
8059;BME280;4072;42.668;23.396;2023-05-06T00:43:03;95252.41;;;9.59;100.00
8059;BME280;4072;42.668;23.396;2023-05-06T00:45:32;95247.00;;;9.59;100.00
8059;BME280;4072;42.668;23.396;2023-05-06T00:48:03;95236.44;;;9.52;100.00
8059;BME280;4072;42.668;23.396;2023-05-06T00:50:32;95240.34;;;9.51;100.00
8059;BME280;4072;42.668;23.396;2023-05-06T00:53:03;95242.72;;;9.49;100.00
8059;BME280;4072;42.668;23.396;2023-05-06T00:55:33;95237.31;;;9.49;100.00
8059;BME280;4072;42.668;23.396;2023-05-06T00:58:01;95235.81;;;9.48;100.00
8059;BME280;4072;42.668;23.396;2023-05-06T01:00:30;95226.97;;;9.35;100.00
8059;BME280;4072;42.668;23.396;2023-05-06T01:02:58;95230.97;;;9.31;100.00
8059;BME280;4072;42.668;23.396;2023-05-06T01:05:32;95234.63;;;9.24;100.00
8059;BME280;4072;42.668;23.396;2023-05-06T01:08:07;95225.81;;;9.24;100.00
8059;BME280;4072;42.668;23.396;2023-05-06T01:10:43;95236.38;;;9.31;100.00
8059;BME280;4072;42.668;23.396;2023-05-06T01:13:20;95180.81;;;8.83;100.00
8059;BME280;4072;42.668;23.396;2023-05-06T01:15:53;95124.41;;;8.51;100.00
8059;BME280;4072;42.668;23.396;2023-05-06T01:18:24;95232.50;;;9.19;100.00
8059;BME280;4072;42.668;23.396;2023-05-06T01:20:55;95223.63;;;9.19;100.00
8059;BME280;4072;42.668;23.396;2023-05-06T01:23:26;95230.66;;;9.16;100.00
8059;BME280;4072;42.668;23.396;2023-05-06T01:25:55;95235.72;;;9.14;100.00
8059;BME280;4072;42.668;23.396;2023-05-06T01:28:24;95233.25;;;9.07;100.00
8059;BME280;4072;42.668;23.396;2023-05-06T01:30:57;95228.72;;;9.04;100.00
8059;BME280;4072;42.668;23.396;2023-05-06T01:33:32;95217.72;;;8.98;100.00
8059;BME280;4072;42.668;23.396;2023-05-06T01:36:11;95230.66;;;8.91;100.00
8059;BME280;4072;42.668;23.396;2023-05-06T01:38:48;95224.19;;;8.76;100.00
8059;BME280;4072;42.668;23.396;2023-05-06T01:41:20;95223.75;;;8.77;100.00
8059;BME280;4072;42.668;23.396;2023-05-06T01:43:51;95228.47;;;8.86;100.00
8059;BME280;4072;42.668;23.396;2023-05-06T01:46:23;95225.69;;;8.89;100.00
8059;BME280;4072;42.668;23.396;2023-05-06T01:48:52;95211.00;;;8.78;100.00
8059;BME280;4072;42.668;23.396;2023-05-06T01:51:22;95235.06;;;8.97;100.00
8059;BME280;4072;42.668;23.396;2023-05-06T01:53:52;95230.22;;;8.80;100.00
8059;BME280;4072;42.668;23.396;2023-05-06T01:56:20;95228.25;;;8.68;100.00
8059;BME280;4072;42.668;23.396;2023-05-06T01:58:49;95238.63;;;8.82;100.00
8059;BME280;4072;42.668;23.396;2023-05-06T02:01:17;95247.06;;;8.84;100.00
8059;BME280;4072;42.668;23.396;2023-05-06T02:03:45;95230.09;;;8.83;100.00
8059;BME280;4072;42.668;23.396;2023-05-06T02:06:14;95216.41;;;8.78;100.00
8059;BME280;4072;42.668;23.396;2023-05-06T02:08:43;95227.75;;;8.85;100.00
8059;BME280;4072;42.668;23.396;2023-05-06T02:11:12;95220.50;;;8.95;100.00
8059;BME280;4072;42.668;23.396;2023-05-06T02:13:40;95234.97;;;8.76;100.00
8059;BME280;4072;42.668;23.396;2023-05-06T02:16:08;95197.19;;;8.51;100.00
8059;BME280;4072;42.668;23.396;2023-05-06T02:18:37;95087.84;;;7.71;100.00
8059;BME280;4072;42.668;23.396;2023-05-06T02:21:05;95234.31;;;8.72;100.00
8059;BME280;4072;42.668;23.396;2023-05-06T02:23:34;95221.56;;;8.60;100.00
8059;BME280;4072;42.668;23.396;2023-05-06T02:26:03;95225.56;;;8.80;100.00
8059;BME280;4072;42.668;23.396;2023-05-06T02:28:33;95232.50;;;8.81;100.00
8059;BME280;4072;42.668;23.396;2023-05-06T02:31:01;95226.13;;;8.88;100.00
8059;BME280;4072;42.668;23.396;2023-05-06T02:33:29;95230.75;;;8.87;100.00
8059;BME280;4072;42.668;23.396;2023-05-06T02:35:59;95224.72;;;8.83;100.00
8059;BME280;4072;42.668;23.396;2023-05-06T02:38:27;95237.25;;;8.77;100.00
8059;BME280;4072;42.668;23.396;2023-05-06T02:40:56;95222.13;;;8.92;100.00
8059;BME280;4072;42.668;23.396;2023-05-06T02:43:25;95230.22;;;9.05;100.00
8059;BME280;4072;42.668;23.396;2023-05-06T02:45:54;95227.63;;;8.89;100.00
8059;BME280;4072;42.668;23.396;2023-05-06T02:48:23;95189.56;;;8.74;100.00
8059;BME280;4072;42.668;23.396;2023-05-06T02:50:51;95220.09;;;9.09;100.00
8059;BME280;4072;42.668;23.396;2023-05-06T02:53:19;95225.06;;;8.98;100.00
8059;BME280;4072;42.668;23.396;2023-05-06T02:55:47;95233.66;;;8.93;100.00
8059;BME280;4072;42.668;23.396;2023-05-06T02:58:16;95234.56;;;8.90;100.00
8059;BME280;4072;42.668;23.396;2023-05-06T03:00:44;95216.41;;;8.78;100.00
8059;BME280;4072;42.668;23.396;2023-05-06T03:03:14;95223.75;;;8.90;100.00
8059;BME280;4072;42.668;23.396;2023-05-06T03:05:43;95242.97;;;8.92;100.00
8059;BME280;4072;42.668;23.396;2023-05-06T03:08:12;95235.50;;;8.83;100.00
8059;BME280;4072;42.668;23.396;2023-05-06T03:10:41;95238.84;;;8.75;100.00
8059;BME280;4072;42.668;23.396;2023-05-06T03:13:09;95235.81;;;8.73;100.00
8059;BME280;4072;42.668;23.396;2023-05-06T03:15:38;95242.06;;;8.70;100.00
8059;BME280;4072;42.668;23.396;2023-05-06T03:18:07;95195.13;;;8.42;100.00
8059;BME280;4072;42.668;23.396;2023-05-06T03:20:36;95245.13;;;8.72;100.00
8059;BME280;4072;42.668;23.396;2023-05-06T03:23:06;95247.47;;;8.70;100.00
8059;BME280;4072;42.668;23.396;2023-05-06T03:25:34;95251.25;;;8.72;100.00
8059;BME280;4072;42.668;23.396;2023-05-06T03:28:03;95251.38;;;8.69;100.00
8059;BME280;4072;42.668;23.396;2023-05-06T03:30:31;95252.88;;;8.70;100.00
8059;BME280;4072;42.668;23.396;2023-05-06T03:33:00;95250.78;;;8.61;100.00
8059;BME280;4072;42.668;23.396;2023-05-06T03:35:29;95264.50;;;8.67;100.00
8059;BME280;4072;42.668;23.396;2023-05-06T03:37:59;95261.69;;;8.58;100.00
8059;BME280;4072;42.668;23.396;2023-05-06T03:40:27;95258.41;;;8.79;100.00
8059;BME280;4072;42.668;23.396;2023-05-06T03:42:56;95258.81;;;8.77;100.00
8059;BME280;4072;42.668;23.396;2023-05-06T03:45:24;95261.19;;;8.75;100.00
8059;BME280;4072;42.668;23.396;2023-05-06T03:47:52;95257.41;;;8.73;100.00
8059;BME280;4072;42.668;23.396;2023-05-06T03:50:24;95260.75;;;8.77;100.00
8059;BME280;4072;42.668;23.396;2023-05-06T03:52:53;95260.97;;;8.70;100.00
8059;BME280;4072;42.668;23.396;2023-05-06T03:55:22;95263.00;;;8.66;100.00
8059;BME280;4072;42.668;23.396;2023-05-06T03:57:50;95261.38;;;8.68;100.00
8059;BME280;4072;42.668;23.396;2023-05-06T04:00:19;95253.84;;;8.63;100.00
8059;BME280;4072;42.668;23.396;2023-05-06T04:02:48;95272.53;;;8.95;100.00
8059;BME280;4072;42.668;23.396;2023-05-06T04:05:17;95234.84;;;8.79;100.00
8059;BME280;4072;42.668;23.396;2023-05-06T04:07:45;95267.16;;;9.08;100.00
8059;BME280;4072;42.668;23.396;2023-05-06T04:10:13;95277.63;;;9.19;100.00
8059;BME280;4072;42.668;23.396;2023-05-06T04:12:43;95277.41;;;9.26;100.00
8059;BME280;4072;42.668;23.396;2023-05-06T04:15:11;95245.78;;;9.01;100.00
8059;BME280;4072;42.668;23.396;2023-05-06T04:17:40;95274.47;;;9.20;100.00
8059;BME280;4072;42.668;23.396;2023-05-06T04:20:09;95270.38;;;9.28;100.00
8059;BME280;4072;42.668;23.396;2023-05-06T04:22:38;95277.53;;;9.22;100.00
8059;BME280;4072;42.668;23.396;2023-05-06T04:25:07;95264.31;;;8.99;100.00
8059;BME280;4072;42.668;23.396;2023-05-06T04:27:37;95276.41;;;9.07;100.00
8059;BME280;4072;42.668;23.396;2023-05-06T04:30:09;95276.53;;;9.03;100.00
8059;BME280;4072;42.668;23.396;2023-05-06T04:32:37;95282.78;;;9.00;100.00
8059;BME280;4072;42.668;23.396;2023-05-06T04:35:07;95287.22;;;9.07;100.00
8059;BME280;4072;42.668;23.396;2023-05-06T04:37:36;95284.72;;;9.00;100.00
8059;BME280;4072;42.668;23.396;2023-05-06T04:40:06;95286.47;;;9.19;100.00
8059;BME280;4072;42.668;23.396;2023-05-06T04:42:34;95288.19;;;9.26;100.00
8059;BME280;4072;42.668;23.396;2023-05-06T04:45:08;95294.13;;;9.33;100.00
8059;BME280;4072;42.668;23.396;2023-05-06T04:47:37;95293.28;;;9.36;100.00
8059;BME280;4072;42.668;23.396;2023-05-06T04:50:06;95286.69;;;9.37;100.00
8059;BME280;4072;42.668;23.396;2023-05-06T04:52:36;95299.75;;;9.51;100.00
8059;BME280;4072;42.668;23.396;2023-05-06T04:55:04;95284.28;;;9.64;100.00
8059;BME280;4072;42.668;23.396;2023-05-06T04:57:35;95299.09;;;10.19;100.00
8059;BME280;4072;42.668;23.396;2023-05-06T05:00:03;95266.75;;;10.49;100.00
8059;BME280;4072;42.668;23.396;2023-05-06T05:02:37;95295.94;;;11.06;100.00
8059;BME280;4072;42.668;23.396;2023-05-06T05:05:05;95295.16;;;10.97;100.00
8059;BME280;4072;42.668;23.396;2023-05-06T05:07:34;95279.25;;;10.77;100.00
8059;BME280;4072;42.668;23.396;2023-05-06T05:10:02;95299.03;;;11.26;100.00
8059;BME280;4072;42.668;23.396;2023-05-06T05:12:31;95285.69;;;11.62;100.00
8059;BME280;4072;42.668;23.396;2023-05-06T05:14:59;95296.53;;;11.71;100.00
8059;BME280;4072;42.668;23.396;2023-05-06T05:17:27;95295.97;;;11.85;100.00
8059;BME280;4072;42.668;23.396;2023-05-06T05:19:57;95295.38;;;12.00;100.00
8059;BME280;4072;42.668;23.396;2023-05-06T05:22:26;95305.91;;;11.88;100.00
8059;BME280;4072;42.668;23.396;2023-05-06T05:24:55;95301.66;;;11.78;100.00
8059;BME280;4072;42.668;23.396;2023-05-06T05:27:23;95301.09;;;11.53;100.00
8059;BME280;4072;42.668;23.396;2023-05-06T05:29:52;95304.50;;;11.35;100.00
8059;BME280;4072;42.668;23.396;2023-05-06T05:32:20;95301.44;;;11.24;100.00
8059;BME280;4072;42.668;23.396;2023-05-06T05:34:48;95304.72;;;11.19;100.00
8059;BME280;4072;42.668;23.396;2023-05-06T05:37:18;95299.19;;;11.23;100.00
8059;BME280;4072;42.668;23.396;2023-05-06T05:39:46;95292.47;;;11.36;100.00
8059;BME280;4072;42.668;23.396;2023-05-06T05:42:15;95294.31;;;11.48;100.00
8059;BME280;4072;42.668;23.396;2023-05-06T05:44:43;95298.94;;;11.78;100.00
8059;BME280;4072;42.668;23.396;2023-05-06T05:47:13;95282.72;;;11.88;100.00
8059;BME280;4072;42.668;23.396;2023-05-06T05:49:42;95298.25;;;11.96;100.00
8059;BME280;4072;42.668;23.396;2023-05-06T05:52:10;95303.84;;;12.11;100.00
8059;BME280;4072;42.668;23.396;2023-05-06T05:54:40;95264.63;;;11.84;100.00
8059;BME280;4072;42.668;23.396;2023-05-06T05:57:08;95307.16;;;12.15;100.00
8059;BME280;4072;42.668;23.396;2023-05-06T05:59:36;95310.47;;;12.10;100.00
8059;BME280;4072;42.668;23.396;2023-05-06T06:02:05;95307.72;;;12.01;100.00
8059;BME280;4072;42.668;23.396;2023-05-06T06:04:34;95311.94;;;11.93;100.00
8059;BME280;4072;42.668;23.396;2023-05-06T06:07:05;95308.69;;;12.16;100.00
8059;BME280;4072;42.668;23.396;2023-05-06T06:09:33;95306.56;;;12.29;100.00
8059;BME280;4072;42.668;23.396;2023-05-06T06:12:03;95302.03;;;12.17;100.00
8059;BME280;4072;42.668;23.396;2023-05-06T06:14:31;95318.25;;;11.89;100.00
8059;BME280;4072;42.668;23.396;2023-05-06T06:17:04;95313.28;;;11.79;100.00
8059;BME280;4072;42.668;23.396;2023-05-06T06:19:33;95319.13;;;11.77;100.00
8059;BME280;4072;42.668;23.396;2023-05-06T06:22:02;95318.25;;;11.80;100.00
8059;BME280;4072;42.668;23.396;2023-05-06T06:24:35;95321.28;;;11.92;100.00
8059;BME280;4072;42.668;23.396;2023-05-06T06:27:07;95318.13;;;11.93;100.00
8059;BME280;4072;42.668;23.396;2023-05-06T06:29:36;95313.28;;;11.88;100.00
8059;BME280;4072;42.668;23.396;2023-05-06T06:32:06;95316.75;;;11.88;100.00
8059;BME280;4072;42.668;23.396;2023-05-06T06:34:35;95278.44;;;11.68;100.00
8059;BME280;4072;42.668;23.396;2023-05-06T06:37:04;95305.91;;;11.88;100.00
8059;BME280;4072;42.668;23.396;2023-05-06T06:39:33;95314.97;;;11.95;100.00
8059;BME280;4072;42.668;23.396;2023-05-06T06:42:01;95307.88;;;12.06;100.00
8059;BME280;4072;42.668;23.396;2023-05-06T06:44:34;95310.75;;;12.03;100.00
8059;BME280;4072;42.668;23.396;2023-05-06T06:47:03;95330.38;;;12.16;100.00
8059;BME280;4072;42.668;23.396;2023-05-06T06:49:31;95332.47;;;12.21;100.00
8059;BME280;4072;42.668;23.396;2023-05-06T06:52:01;95317.84;;;12.09;100.00
8059;BME280;4072;42.668;23.396;2023-05-06T06:54:30;95322.50;;;12.00;100.00
8059;BME280;4072;42.668;23.396;2023-05-06T06:56:58;95326.28;;;12.11;100.00
8059;BME280;4072;42.668;23.396;2023-05-06T06:59:27;95316.81;;;12.25;100.00
8059;BME280;4072;42.668;23.396;2023-05-06T07:01:57;95318.34;;;12.44;100.00
8059;BME280;4072;42.668;23.396;2023-05-06T07:04:25;95322.38;;;12.75;100.00
8059;BME280;4072;42.668;23.396;2023-05-06T07:06:53;95313.47;;;12.93;100.00
8059;BME280;4072;42.668;23.396;2023-05-06T07:09:22;95323.97;;;13.27;100.00
8059;BME280;4072;42.668;23.396;2023-05-06T07:11:50;95322.44;;;13.44;100.00
8059;BME280;4072;42.668;23.396;2023-05-06T07:14:19;95324.06;;;13.83;100.00
8059;BME280;4072;42.668;23.396;2023-05-06T07:16:47;95323.81;;;14.04;100.00
8059;BME280;4072;42.668;23.396;2023-05-06T07:19:18;95318.97;;;14.32;100.00
8059;BME280;4072;42.668;23.396;2023-05-06T07:21:47;95331.16;;;14.60;100.00
8059;BME280;4072;42.668;23.396;2023-05-06T07:24:17;95317.03;;;15.00;100.00
8059;BME280;4072;42.668;23.396;2023-05-06T07:26:46;95323.38;;;15.20;100.00
8059;BME280;4072;42.668;23.396;2023-05-06T07:29:14;95325.72;;;15.42;100.00
8059;BME280;4072;42.668;23.396;2023-05-06T07:31:42;95332.03;;;15.62;100.00
8059;BME280;4072;42.668;23.396;2023-05-06T07:34:11;95268.00;;;15.43;100.00
8059;BME280;4072;42.668;23.396;2023-05-06T07:36:43;95326.41;;;16.40;100.00
8059;BME280;4072;42.668;23.396;2023-05-06T07:39:13;95320.72;;;16.58;100.00
8059;BME280;4072;42.668;23.396;2023-05-06T07:41:41;95295.97;;;16.67;100.00
8059;BME280;4072;42.668;23.396;2023-05-06T07:44:11;95309.28;;;17.05;99.95
8059;BME280;4072;42.668;23.396;2023-05-06T07:46:39;95324.09;;;17.44;93.41
8059;BME280;4072;42.668;23.396;2023-05-06T07:49:08;95324.56;;;17.43;91.58
8059;BME280;4072;42.668;23.396;2023-05-06T07:51:36;95333.41;;;17.32;89.79
8059;BME280;4072;42.668;23.396;2023-05-06T07:54:05;95332.34;;;17.24;88.85
8059;BME280;4072;42.668;23.396;2023-05-06T07:56:34;95318.88;;;16.95;93.73
8059;BME280;4072;42.668;23.396;2023-05-06T07:59:02;95310.53;;;17.04;91.34
8059;BME280;4072;42.668;23.396;2023-05-06T08:01:32;95332.06;;;17.22;88.82
8059;BME280;4072;42.668;23.396;2023-05-06T08:04:02;95328.59;;;16.96;89.14
8059;BME280;4072;42.668;23.396;2023-05-06T08:06:30;95319.47;;;16.79;91.99
8059;BME280;4072;42.668;23.396;2023-05-06T08:09:01;95315.72;;;17.02;92.13
8059;BME280;4072;42.668;23.396;2023-05-06T08:11:31;95311.38;;;17.41;88.43
8059;BME280;4072;42.668;23.396;2023-05-06T08:14:01;95301.97;;;17.42;86.56
8059;BME280;4072;42.668;23.396;2023-05-06T08:16:29;95312.34;;;17.70;84.54
8059;BME280;4072;42.668;23.396;2023-05-06T08:18:57;95324.69;;;17.91;81.82
8059;BME280;4072;42.668;23.396;2023-05-06T08:21:26;95324.41;;;17.52;89.15
8059;BME280;4072;42.668;23.396;2023-05-06T08:23:54;95325.25;;;17.12;93.77
8059;BME280;4072;42.668;23.396;2023-05-06T08:26:23;95275.78;;;16.59;99.50
8059;BME280;4072;42.668;23.396;2023-05-06T08:28:53;95325.53;;;16.69;100.00
8059;BME280;4072;42.668;23.396;2023-05-06T08:31:21;95313.47;;;16.55;100.00
8059;BME280;4072;42.668;23.396;2023-05-06T08:33:50;95325.81;;;16.71;97.04
8059;BME280;4072;42.668;23.396;2023-05-06T08:36:20;95311.94;;;16.74;99.00
8059;BME280;4072;42.668;23.396;2023-05-06T08:38:49;95322.03;;;16.88;100.00
8059;BME280;4072;42.668;23.396;2023-05-06T08:41:18;95317.28;;;16.83;100.00
8059;BME280;4072;42.668;23.396;2023-05-06T08:43:49;95301.53;;;16.53;98.57
8059;BME280;4072;42.668;23.396;2023-05-06T08:46:19;95320.88;;;16.95;96.88
8059;BME280;4072;42.668;23.396;2023-05-06T08:48:47;95321.13;;;16.97;96.46
8059;BME280;4072;42.668;23.396;2023-05-06T08:51:16;95323.22;;;16.82;95.51
8059;BME280;4072;42.668;23.396;2023-05-06T08:53:47;95315.19;;;16.98;96.31
8059;BME280;4072;42.668;23.396;2023-05-06T08:56:17;95322.97;;;17.05;94.69
8059;BME280;4072;42.668;23.396;2023-05-06T08:58:47;95314.75;;;17.05;95.14
8059;BME280;4072;42.668;23.396;2023-05-06T09:01:20;95305.53;;;17.03;90.52
8059;BME280;4072;42.668;23.396;2023-05-06T09:03:50;95304.69;;;16.91;90.60
8059;BME280;4072;42.668;23.396;2023-05-06T09:06:18;95268.66;;;16.67;90.55
8059;BME280;4072;42.668;23.396;2023-05-06T09:08:47;95303.94;;;17.16;91.94
8059;BME280;4072;42.668;23.396;2023-05-06T09:11:20;95297.97;;;17.75;87.95
8059;BME280;4072;42.668;23.396;2023-05-06T09:13:49;95293.63;;;17.94;85.05
8059;BME280;4072;42.668;23.396;2023-05-06T09:16:29;95294.94;;;18.04;81.42
8059;BME280;4072;42.668;23.396;2023-05-06T09:18:57;95292.75;;;18.19;79.78
8059;BME280;4072;42.668;23.396;2023-05-06T09:21:32;95292.72;;;18.61;75.49
8059;BME280;4072;42.668;23.396;2023-05-06T09:24:01;95291.56;;;18.84;72.33
8059;BME280;4072;42.668;23.396;2023-05-06T09:26:30;95288.47;;;18.54;74.24
8059;BME280;4072;42.668;23.396;2023-05-06T09:28:59;95294.34;;;18.31;75.72
8059;BME280;4072;42.668;23.396;2023-05-06T09:31:30;95282.53;;;18.14;75.42
8059;BME280;4072;42.668;23.396;2023-05-06T09:33:59;95285.78;;;18.18;76.26
8059;BME280;4072;42.668;23.396;2023-05-06T09:36:28;95282.59;;;18.25;74.45
8059;BME280;4072;42.668;23.396;2023-05-06T09:38:57;95280.94;;;18.44;75.29
8059;BME280;4072;42.668;23.396;2023-05-06T09:41:25;95283.38;;;18.31;73.52
8059;BME280;4072;42.668;23.396;2023-05-06T09:43:55;95276.72;;;18.43;74.27
8059;BME280;4072;42.668;23.396;2023-05-06T09:46:25;95281.50;;;18.59;71.31
8059;BME280;4072;42.668;23.396;2023-05-06T09:48:56;95266.09;;;18.67;72.48
8059;BME280;4072;42.668;23.396;2023-05-06T09:51:25;95267.38;;;18.71;71.89
8059;BME280;4072;42.668;23.396;2023-05-06T09:53:57;95268.53;;;18.54;72.20
8059;BME280;4072;42.668;23.396;2023-05-06T09:56:27;95265.56;;;18.52;71.29
8059;BME280;4072;42.668;23.396;2023-05-06T09:58:58;95276.34;;;18.77;71.05
8059;BME280;4072;42.668;23.396;2023-05-06T10:01:33;95262.75;;;18.35;70.79
8059;BME280;4072;42.668;23.396;2023-05-06T10:04:07;95262.91;;;18.21;73.37
8059;BME280;4072;42.668;23.396;2023-05-06T10:06:38;95273.00;;;18.46;72.54
8059;BME280;4072;42.668;23.396;2023-05-06T10:09:07;95264.56;;;18.55;71.85
8059;BME280;4072;42.668;23.396;2023-05-06T10:11:37;95234.59;;;18.35;72.05
8059;BME280;4072;42.668;23.396;2023-05-06T10:14:06;95236.38;;;18.38;70.25
8059;BME280;4072;42.668;23.396;2023-05-06T10:16:36;95270.06;;;18.66;71.28
8059;BME280;4072;42.668;23.396;2023-05-06T10:19:07;95265.16;;;18.92;69.31
8059;BME280;4072;42.668;23.396;2023-05-06T10:21:38;95259.22;;;19.10;59.64
8059;BME280;4072;42.668;23.396;2023-05-06T10:24:13;95264.69;;;19.21;58.58
8059;BME280;4072;42.668;23.396;2023-05-06T10:26:44;95266.69;;;19.15;57.39
8059;BME280;4072;42.668;23.396;2023-05-06T10:29:15;95255.97;;;19.17;56.55
8059;BME280;4072;42.668;23.396;2023-05-06T10:31:48;95271.47;;;19.47;55.98
8059;BME280;4072;42.668;23.396;2023-05-06T10:34:20;95255.97;;;19.22;56.77
8059;BME280;4072;42.668;23.396;2023-05-06T10:36:51;95254.75;;;19.29;57.58
8059;BME280;4072;42.668;23.396;2023-05-06T10:39:23;95261.97;;;19.43;57.19
8059;BME280;4072;42.668;23.396;2023-05-06T10:41:53;95249.28;;;19.56;55.65
8059;BME280;4072;42.668;23.396;2023-05-06T10:44:54;95261.75;;;19.41;55.68
8059;BME280;4072;42.668;23.396;2023-05-06T10:47:23;95256.19;;;19.08;57.23
8059;BME280;4072;42.668;23.396;2023-05-06T10:50:20;95250.28;;;19.37;55.13
8059;BME280;4072;42.668;23.396;2023-05-06T10:52:50;95262.25;;;19.56;55.11
8059;BME280;4072;42.668;23.396;2023-05-06T10:55:30;95249.75;;;19.77;55.29
8059;BME280;4072;42.668;23.396;2023-05-06T10:58:02;95249.59;;;20.32;49.80
8059;BME280;4072;42.668;23.396;2023-05-06T11:00:32;95222.50;;;20.01;48.70
8059;BME280;4072;42.668;23.396;2023-05-06T11:03:02;95258.66;;;20.16;50.57
8059;BME280;4072;42.668;23.396;2023-05-06T11:05:45;95246.94;;;19.99;51.46
8059;BME280;4072;42.668;23.396;2023-05-06T11:08:15;95250.63;;;20.29;49.50
8059;BME280;4072;42.668;23.396;2023-05-06T11:10:48;95259.66;;;20.13;50.05
8059;BME280;4072;42.668;23.396;2023-05-06T11:13:22;95249.72;;;19.88;51.03
8059;BME280;4072;42.668;23.396;2023-05-06T11:15:53;95212.34;;;19.63;51.00
8059;BME280;4072;42.668;23.396;2023-05-06T11:18:43;95250.75;;;19.63;52.37
8059;BME280;4072;42.668;23.396;2023-05-06T11:21:38;95255.22;;;19.88;52.09
8059;BME280;4072;42.668;23.396;2023-05-06T11:24:10;95251.69;;;19.93;52.41
8059;BME280;4072;42.668;23.396;2023-05-06T11:26:42;95256.19;;;19.90;53.00
8059;BME280;4072;42.668;23.396;2023-05-06T11:29:14;95242.19;;;20.05;54.38
8059;BME280;4072;42.668;23.396;2023-05-06T11:31:43;95249.44;;;20.08;53.59
8059;BME280;4072;42.668;23.396;2023-05-06T11:34:41;95232.69;;;20.17;51.39
8059;BME280;4072;42.668;23.396;2023-05-06T11:37:23;95243.03;;;20.57;50.39
8059;BME280;4072;42.668;23.396;2023-05-06T11:39:51;95242.78;;;20.55;47.97
8059;BME280;4072;42.668;23.396;2023-05-06T11:42:26;95231.94;;;20.22;48.34
8059;BME280;4072;42.668;23.396;2023-05-06T11:44:59;95240.66;;;20.26;49.44
8059;BME280;4072;42.668;23.396;2023-05-06T11:47:28;95246.66;;;20.76;46.83
8059;BME280;4072;42.668;23.396;2023-05-06T11:49:57;95244.88;;;20.84;46.43
8059;BME280;4072;42.668;23.396;2023-05-06T11:52:29;95247.34;;;20.93;46.41
8059;BME280;4072;42.668;23.396;2023-05-06T11:54:57;95245.72;;;20.68;48.15
8059;BME280;4072;42.668;23.396;2023-05-06T11:57:25;95245.28;;;20.53;47.39
8059;BME280;4072;42.668;23.396;2023-05-06T11:59:53;95229.63;;;20.37;47.90
8059;BME280;4072;42.668;23.396;2023-05-06T12:02:22;95250.13;;;20.36;47.23
8059;BME280;4072;42.668;23.396;2023-05-06T12:04:52;95243.09;;;20.35;46.87
8059;BME280;4072;42.668;23.396;2023-05-06T12:07:21;95238.78;;;20.51;47.58
8059;BME280;4072;42.668;23.396;2023-05-06T12:09:51;95187.78;;;19.98;45.57
8059;BME280;4072;42.668;23.396;2023-05-06T12:12:21;95231.44;;;20.18;46.99
8059;BME280;4072;42.668;23.396;2023-05-06T12:14:52;95225.72;;;20.16;46.42
8059;BME280;4072;42.668;23.396;2023-05-06T12:17:21;95224.47;;;20.06;47.26
8059;BME280;4072;42.668;23.396;2023-05-06T12:19:51;95227.63;;;20.32;47.50
8059;BME280;4072;42.668;23.396;2023-05-06T12:22:21;95227.22;;;20.69;46.19
8059;BME280;4072;42.668;23.396;2023-05-06T12:24:51;95212.69;;;20.74;46.30
8059;BME280;4072;42.668;23.396;2023-05-06T12:27:30;95222.81;;;20.95;46.92
8059;BME280;4072;42.668;23.396;2023-05-06T12:29:58;95213.56;;;20.98;46.53
8059;BME280;4072;42.668;23.396;2023-05-06T12:32:30;95221.38;;;20.83;48.15
8059;BME280;4072;42.668;23.396;2023-05-06T12:35:02;95213.88;;;20.43;50.06
8059;BME280;4072;42.668;23.396;2023-05-06T12:37:33;95216.69;;;20.10;51.14
8059;BME280;4072;42.668;23.396;2023-05-06T12:40:03;95206.28;;;19.92;52.20
8059;BME280;4072;42.668;23.396;2023-05-06T12:42:33;95212.53;;;19.92;52.42
8059;BME280;4072;42.668;23.396;2023-05-06T12:45:14;95209.97;;;20.05;52.07
8059;BME280;4072;42.668;23.396;2023-05-06T12:47:53;95202.75;;;20.08;52.46
8059;BME280;4072;42.668;23.396;2023-05-06T12:50:31;95123.47;;;19.77;51.16
8059;BME280;4072;42.668;23.396;2023-05-06T12:53:00;95183.72;;;20.21;51.12
8059;BME280;4072;42.668;23.396;2023-05-06T12:55:31;95193.00;;;20.64;50.36
8059;BME280;4072;42.668;23.396;2023-05-06T12:57:59;95207.13;;;20.85;48.16
8059;BME280;4072;42.668;23.396;2023-05-06T13:00:29;95219.88;;;20.36;46.87
8059;BME280;4072;42.668;23.396;2023-05-06T13:02:57;95199.66;;;20.28;47.38
8059;BME280;4072;42.668;23.396;2023-05-06T13:05:26;95206.31;;;20.49;47.56
8059;BME280;4072;42.668;23.396;2023-05-06T13:07:54;95200.16;;;20.32;48.28
8059;BME280;4072;42.668;23.396;2023-05-06T13:10:23;95193.75;;;20.13;49.02
8059;BME280;4072;42.668;23.396;2023-05-06T13:12:53;95198.81;;;19.87;48.64
8059;BME280;4072;42.668;23.396;2023-05-06T13:15:22;95200.34;;;19.66;49.67
8059;BME280;4072;42.668;23.396;2023-05-06T13:17:50;95224.59;;;19.56;50.54
8059;BME280;4072;42.668;23.396;2023-05-06T13:20:19;95210.84;;;19.62;50.90
8059;BME280;4072;42.668;23.396;2023-05-06T13:22:47;95209.84;;;19.65;50.06